Time;durP1;ratioP1;P1;durP2;ratioP2;P2;SDS_P1;SDS_P2;PMS_P1;PMS_P2;Temp;Humidity;BMP_temperature;BMP_pressure;BME280_temperature;BME280_humidity;BME280_pressure;Samples;Min_cycle;Max_cycle;Signal;HPM_P1;HPM_P2
2021/12/14 00:00:58;;;;;;;;;13.75;13.50;;;;;;;;5097800;27;45388;-84
2021/12/14 00:03:27;;;;;;;;;14.75;14.00;;;;;;;;5116481;27;45331;-80
2021/12/14 00:05:52;;;;;;;;;13.75;12.50;;;;;;;;5097388;27;48342;-84
2021/12/14 00:08:18;;;;;;;;;19.00;15.25;;;;;;;;5115475;27;45342;-83
2021/12/14 00:13:47;;;;;;;;;10.00;10.00;;;;;;;;5073237;27;45583;-85
2021/12/14 00:16:13;;;;;;;;;12.25;11.00;;;;;;;;5115664;27;45382;-83
2021/12/14 00:18:40;;;;;;;;;13.00;12.75;;;;;;;;5115715;27;45554;-82
2021/12/14 00:21:12;;;;;;;;;10.50;8.25;;;;;;;;5116594;27;45710;-81
2021/12/14 00:26:22;;;;;;;;;9.75;9.75;;;;;;;;5115826;27;45546;-81
2021/12/14 00:28:48;;;;;;;;;12.50;9.50;;;;;;;;5115652;27;45385;-84
2021/12/14 00:31:16;;;;;;;;;9.25;8.50;;;;;;;;5097334;27;45483;-84
2021/12/14 00:33:43;;;;;;;;;9.25;9.25;;;;;;;;5115718;27;45444;-84
2021/12/14 00:36:09;;;;;;;;;9.25;9.00;;;;;;;;5096998;27;47217;-82
2021/12/14 00:38:35;;;;;;;;;10.00;9.75;;;;;;;;5115252;27;45931;-83
2021/12/14 00:41:13;;;;;;;;;11.00;9.00;;;;;;;;5115544;27;45479;-81
2021/12/14 00:43:39;;;;;;;;;8.25;7.00;;;;;;;;5096960;27;45462;-84
2021/12/14 00:46:04;;;;;;;;;8.50;7.75;;;;;;;;5096525;27;48830;-85
2021/12/14 00:48:30;;;;;;;;;8.50;6.50;;;;;;;;5096972;27;45405;-83
2021/12/14 00:50:57;;;;;;;;;9.75;8.00;;;;;;;;5096815;27;45467;-85
2021/12/14 00:53:22;;;;;;;;;6.50;6.25;;;;;;;;5115584;27;45556;-84
2021/12/14 00:55:49;;;;;;;;;9.50;8.00;;;;;;;;5115374;27;46719;-82
2021/12/14 00:58:15;;;;;;;;;8.00;7.25;;;;;;;;5115140;27;45463;-82
2021/12/14 01:00:43;;;;;;;;;6.50;6.50;;;;;;;;5096758;27;45341;-82
2021/12/14 01:03:09;;;;;;;;;6.75;5.25;;;;;;;;5115175;27;45418;-83
2021/12/14 01:05:36;;;;;;;;;6.00;6.00;;;;;;;;5115576;27;46679;-82
2021/12/14 01:08:04;;;;;;;;;7.00;6.75;;;;;;;;5114735;27;45729;-86
2021/12/14 01:10:34;;;;;;;;;7.00;7.00;;;;;;;;5115434;27;45331;-85
2021/12/14 01:13:05;;;;;;;;;7.75;7.00;;;;;;;;5096954;27;45419;-85
2021/12/14 01:15:59;;;;;;;;;8.00;8.00;;;;;;;;5096719;27;47539;-84
2021/12/14 01:22:11;;;;;;;;;6.00;4.50;;;;;;;;5114337;27;45403;-85
2021/12/14 01:24:24;;;;;;;;;9.50;8.50;;;;;;;;5110982;27;45267;-85
2021/12/14 01:26:50;;;;;;;;;8.25;7.75;;;;;;;;5096183;27;47240;-84
2021/12/14 01:29:17;;;;;;;;;7.00;7.00;;;;;;;;5114785;27;45460;-84
2021/12/14 01:31:43;;;;;;;;;6.75;5.00;;;;;;;;5115384;27;45428;-81
2021/12/14 01:34:10;;;;;;;;;7.00;6.75;;;;;;;;5096314;27;45372;-85
2021/12/14 01:36:43;;;;;;;;;8.00;6.00;;;;;;;;5114601;27;46655;-85
2021/12/14 01:41:42;;;;;;;;;5.25;5.25;;;;;;;;5110469;27;45325;-85
2021/12/14 01:44:08;;;;;;;;;6.75;6.00;;;;;;;;5096293;27;45362;-84
2021/12/14 01:46:36;;;;;;;;;7.00;5.75;;;;;;;;5095967;27;47049;-85
2021/12/14 01:49:06;;;;;;;;;7.00;4.00;;;;;;;;5114604;27;45460;-81
2021/12/14 01:51:32;;;;;;;;;3.00;2.50;;;;;;;;5114504;27;45385;-83
2021/12/14 01:53:58;;;;;;;;;3.00;2.75;;;;;;;;5114570;27;45303;-84
2021/12/14 01:56:25;;;;;;;;;5.25;4.00;;;;;;;;5095765;27;47190;-82
2021/12/14 01:58:53;;;;;;;;;5.25;4.00;;;;;;;;5114424;27;45413;-85
2021/12/14 02:01:20;;;;;;;;;3.75;3.00;;;;;;;;5096054;27;45416;-84
2021/12/14 02:03:56;;;;;;;;;3.75;3.00;;;;;;;;5096053;27;45610;-84
2021/12/14 02:06:24;;;;;;;;;4.00;3.00;;;;;;;;5095514;27;47394;-82
2021/12/14 02:08:54;;;;;;;;;5.75;4.50;;;;;;;;5114291;27;45833;-81
2021/12/14 02:11:19;;;;;;;;;6.75;6.00;;;;;;;;5114638;27;45348;-81
2021/12/14 02:13:47;;;;;;;;;3.00;3.00;;;;;;;;5095893;27;45388;-82
2021/12/14 02:16:14;;;;;;;;;7.25;7.00;;;;;;;;5095485;27;49103;-85
2021/12/14 02:18:43;;;;;;;;;5.00;5.00;;;;;;;;5114076;27;45845;-82
2021/12/14 02:21:10;;;;;;;;;7.50;6.25;;;;;;;;5114040;27;45235;-81
2021/12/14 02:23:37;;;;;;;;;7.00;7.00;;;;;;;;5114011;27;45587;-84
2021/12/14 02:26:04;;;;;;;;;5.75;4.00;;;;;;;;5095619;27;48697;-81
2021/12/14 02:28:29;;;;;;;;;3.00;2.25;;;;;;;;5114390;27;45366;-81
2021/12/14 02:30:55;;;;;;;;;7.67;5.33;;;;;;;;5115072;27;45420;-84
2021/12/14 02:33:25;;;;;;;;;7.75;7.00;;;;;;;;5117707;27;45704;-85
2021/12/14 02:35:52;;;;;;;;;6.00;5.75;;;;;;;;5112349;27;46245;-83
2021/12/14 02:38:18;;;;;;;;;7.75;7.50;;;;;;;;5117420;27;45909;-83
2021/12/14 02:41:09;;;;;;;;;7.25;5.75;;;;;;;;5099170;27;45406;-81
2021/12/14 02:43:38;;;;;;;;;9.00;7.75;;;;;;;;5096967;27;45971;-82
2021/12/14 02:46:09;;;;;;;;;6.50;6.00;;;;;;;;5098912;27;47497;-83
2021/12/14 02:48:35;;;;;;;;;7.75;7.00;;;;;;;;5117703;27;45236;-84
2021/12/14 02:51:08;;;;;;;;;12.00;11.75;;;;;;;;5098887;27;45474;-81
2021/12/14 02:53:33;;;;;;;;;8.25;7.00;;;;;;;;5117468;27;45545;-85
2021/12/14 02:55:58;;;;;;;;;9.00;8.00;;;;;;;;5117075;27;45299;-81
2021/12/14 02:58:24;;;;;;;;;10.00;5.75;;;;;;;;5098655;27;45419;-82
2021/12/14 03:00:51;;;;;;;;;9.00;8.00;;;;;;;;5098509;27;45417;-84
2021/12/14 03:03:17;;;;;;;;;4.00;4.00;;;;;;;;5117467;27;45381;-81
2021/12/14 03:05:43;;;;;;;;;7.50;7.00;;;;;;;;5117627;27;46199;-85
2021/12/14 03:08:08;;;;;;;;;9.50;8.25;;;;;;;;5098227;27;45719;-84
2021/12/14 03:10:51;;;;;;;;;12.00;10.67;;;;;;;;5098765;27;45373;-83
2021/12/14 03:13:17;;;;;;;;;13.00;11.75;;;;;;;;5098654;27;45324;-85
2021/12/14 03:15:48;;;;;;;;;7.75;7.50;;;;;;;;5098446;27;47390;-82
2021/12/14 03:18:16;;;;;;;;;11.25;9.50;;;;;;;;5098589;27;45871;-82
2021/12/14 03:20:42;;;;;;;;;7.25;6.50;;;;;;;;5117346;27;45477;-82
2021/12/14 03:23:11;;;;;;;;;11.75;9.50;;;;;;;;5097906;27;45481;-81
2021/12/14 03:25:39;;;;;;;;;13.75;11.25;;;;;;;;5098220;27;47212;-82
2021/12/14 03:28:05;;;;;;;;;12.50;9.50;;;;;;;;5098197;27;45658;-81
2021/12/14 03:30:33;;;;;;;;;10.00;9.50;;;;;;;;5117309;27;45338;-85
2021/12/14 03:33:06;;;;;;;;;10.50;8.50;;;;;;;;5117229;27;45430;-85
2021/12/14 03:35:40;;;;;;;;;13.00;9.50;;;;;;;;5116776;27;45445;-85
2021/12/14 03:38:08;;;;;;;;;13.25;10.75;;;;;;;;5097694;27;45872;-85
2021/12/14 03:40:34;;;;;;;;;10.00;10.00;;;;;;;;5098298;27;45410;-85
2021/12/14 03:42:59;;;;;;;;;11.50;10.75;;;;;;;;5116035;27;45436;-85
2021/12/14 03:45:24;;;;;;;;;10.67;10.67;;;;;;;;5116645;27;46222;-85
2021/12/14 03:47:53;;;;;;;;;14.67;13.00;;;;;;;;5098552;27;45563;-84
2021/12/14 03:50:20;;;;;;;;;14.00;13.75;;;;;;;;5098263;27;45546;-85
2021/12/14 03:52:45;;;;;;;;;14.50;12.50;;;;;;;;5116241;27;45486;-85
2021/12/14 03:55:14;;;;;;;;;15.00;13.33;;;;;;;;5097868;27;47994;-84
2021/12/14 03:57:39;;;;;;;;;14.75;14.00;;;;;;;;5116453;27;45374;-82
2021/12/14 04:00:06;;;;;;;;;9.25;9.00;;;;;;;;5116798;27;45478;-82
2021/12/14 04:02:31;;;;;;;;;12.25;12.00;;;;;;;;5097469;27;45532;-85
2021/12/14 04:05:05;;;;;;;;;14.50;12.50;;;;;;;;5116271;27;45576;-85
2021/12/14 04:07:32;;;;;;;;;13.75;12.50;;;;;;;;5097481;27;45721;-84
2021/12/14 04:09:57;;;;;;;;;14.25;13.00;;;;;;;;5116307;27;45491;-83
2021/12/14 04:12:23;;;;;;;;;13.67;13.00;;;;;;;;5116699;27;45441;-85
2021/12/14 04:14:54;;;;;;;;;16.00;13.00;;;;;;;;5097838;27;47221;-82
2021/12/14 04:17:21;;;;;;;;;14.75;12.75;;;;;;;;5116211;27;45492;-85
2021/12/14 04:19:46;;;;;;;;;11.25;9.50;;;;;;;;5097571;27;45500;-85
2021/12/14 04:22:17;;;;;;;;;14.00;13.00;;;;;;;;5096943;27;45404;-85
2021/12/14 04:24:42;;;;;;;;;13.75;12.75;;;;;;;;5115952;27;45609;-82
2021/12/14 04:27:10;;;;;;;;;17.25;13.00;;;;;;;;5116003;27;45290;-81
2021/12/14 04:29:36;;;;;;;;;13.75;13.50;;;;;;;;5116074;27;45374;-84
2021/12/14 04:32:02;;;;;;;;;12.00;11.25;;;;;;;;5097323;27;45415;-83
2021/12/14 04:34:31;;;;;;;;;12.25;11.00;;;;;;;;5097213;27;46085;-82
2021/12/14 04:36:56;;;;;;;;;9.25;7.75;;;;;;;;5096868;27;45279;-84
2021/12/14 04:53:13;;;;;;;;;13.00;11.50;;;;;;;;5114855;27;45485;-81
2021/12/14 04:55:39;;;;;;;;;11.25;8.50;;;;;;;;5075805;27;46461;-82
2021/12/14 04:58:05;;;;;;;;;14.50;13.00;;;;;;;;5115235;27;45709;-82
2021/12/14 05:00:32;;;;;;;;;10.50;10.50;;;;;;;;5097189;27;45557;-81
2021/12/14 05:02:59;;;;;;;;;10.25;10.25;;;;;;;;5115386;27;45744;-82
2021/12/14 05:05:29;;;;;;;;;41.50;32.75;;;;;;;;5115209;27;46148;-83
2021/12/14 05:09:20;;;;;;;;;11.75;10.00;;;;;;;;5096534;27;45725;-81
2021/12/14 05:10:48;;;;;;;;;17.50;13.75;;;;;;;;5112575;27;45410;-81
2021/12/14 05:13:23;;;;;;;;;12.00;11.50;;;;;;;;5115417;27;45447;-82
2021/12/14 05:15:48;;;;;;;;;13.00;11.25;;;;;;;;5115189;27;46170;-82
2021/12/14 05:18:14;;;;;;;;;13.67;11.67;;;;;;;;5114966;27;44898;-84
2021/12/14 05:20:43;;;;;;;;;12.25;9.25;;;;;;;;5096528;27;45484;-82
2021/12/14 05:23:09;;;;;;;;;14.75;13.50;;;;;;;;5114476;27;45331;-82
2021/12/14 05:25:37;;;;;;;;;14.25;12.25;;;;;;;;5096461;27;46126;-86
2021/12/14 05:28:04;;;;;;;;;10.75;8.25;;;;;;;;5096707;27;45942;-82
2021/12/14 05:30:37;;;;;;;;;9.00;9.00;;;;;;;;5115009;27;45386;-82
2021/12/14 05:33:07;;;;;;;;;12.25;11.50;;;;;;;;5096319;27;45598;-81
2021/12/14 05:35:33;;;;;;;;;14.00;12.00;;;;;;;;5090499;27;45666;-81
2021/12/14 05:38:00;;;;;;;;;17.00;10.00;;;;;;;;5114339;27;45899;-82
2021/12/14 05:43:07;;;;;;;;;14.25;11.50;;;;;;;;5114635;27;45494;-81
2021/12/14 05:45:34;;;;;;;;;11.25;10.00;;;;;;;;5096000;27;47237;-81
2021/12/14 05:47:59;;;;;;;;;11.50;9.00;;;;;;;;5095816;27;45473;-84
2021/12/14 05:50:33;;;;;;;;;12.00;10.25;;;;;;;;5114606;27;45555;-82
2021/12/14 05:52:59;;;;;;;;;13.00;10.25;;;;;;;;5096227;27;45502;-85
2021/12/14 05:55:27;;;;;;;;;9.00;7.25;;;;;;;;5114529;27;45407;-84
2021/12/14 05:57:55;;;;;;;;;10.00;8.75;;;;;;;;5096351;27;46007;-82
2021/12/14 06:00:20;;;;;;;;;11.00;8.00;;;;;;;;5114763;27;45444;-85
2021/12/14 06:02:47;;;;;;;;;11.00;9.00;;;;;;;;5096010;27;45585;-82
2021/12/14 06:05:13;;;;;;;;;14.75;13.75;;;;;;;;5113953;27;45362;-85
2021/12/14 06:07:39;;;;;;;;;14.00;11.75;;;;;;;;5113822;27;45497;-81
2021/12/14 06:10:04;;;;;;;;;12.25;10.75;;;;;;;;5095930;27;45459;-85
2021/12/14 06:12:31;;;;;;;;;13.25;12.00;;;;;;;;5095794;27;45681;-85
2021/12/14 06:14:59;;;;;;;;;11.25;8.75;;;;;;;;5095683;27;47328;-81
2021/12/14 06:17:30;;;;;;;;;8.25;7.25;;;;;;;;5114368;27;45737;-84
2021/12/14 06:19:57;;;;;;;;;10.00;7.50;;;;;;;;5096011;27;45349;-81
2021/12/14 06:22:23;;;;;;;;;12.75;10.00;;;;;;;;5113728;27;45372;-84
2021/12/14 06:24:56;;;;;;;;;9.50;9.00;;;;;;;;5113962;27;45449;-83
2021/12/14 06:27:23;;;;;;;;;9.50;8.00;;;;;;;;5114050;27;45406;-85
2021/12/14 06:29:50;;;;;;;;;8.25;7.75;;;;;;;;5095507;27;45453;-84
2021/12/14 06:32:17;;;;;;;;;12.75;10.25;;;;;;;;5114373;27;45331;-85
2021/12/14 06:35:03;;;;;;;;;19.50;15.00;;;;;;;;5094512;27;49332;-85
2021/12/14 06:38:05;;;;;;;;;15.00;13.00;;;;;;;;5113709;27;45807;-81
2021/12/14 06:40:34;;;;;;;;;12.50;12.00;;;;;;;;5114413;27;45461;-81
2021/12/14 06:43:01;;;;;;;;;13.00;12.00;;;;;;;;5095346;27;45636;-80
2021/12/14 06:45:34;;;;;;;;;13.00;12.00;;;;;;;;5113885;27;45477;-85
2021/12/14 06:48:09;;;;;;;;;12.25;10.25;;;;;;;;5095274;27;45405;-84
2021/12/14 06:50:37;;;;;;;;;11.00;9.50;;;;;;;;5095453;27;45585;-85
2021/12/14 06:53:04;;;;;;;;;12.00;10.75;;;;;;;;5113541;27;45629;-82
2021/12/14 06:55:30;;;;;;;;;10.50;10.00;;;;;;;;5095267;27;47072;-85
2021/12/14 06:58:09;;;;;;;;;16.25;15.00;;;;;;;;5113777;27;45489;-82
2021/12/14 07:00:35;;;;;;;;;19.00;17.75;;;;;;;;5113822;27;45334;-82
2021/12/14 07:03:00;;;;;;;;;12.25;9.00;;;;;;;;5113893;27;45471;-82
2021/12/14 07:05:27;;;;;;;;;12.25;10.25;;;;;;;;5094914;27;46605;-81
2021/12/14 07:07:52;;;;;;;;;13.00;8.75;;;;;;;;5113353;27;45479;-82
2021/12/14 07:10:20;;;;;;;;;12.75;11.50;;;;;;;;5113808;27;45425;-83
2021/12/14 07:12:46;;;;;;;;;13.00;12.50;;;;;;;;5095090;27;45358;-86
2021/12/14 07:15:15;;;;;;;;;15.75;13.25;;;;;;;;5113095;27;46381;-85
2021/12/14 07:17:45;;;;;;;;;13.50;12.25;;;;;;;;5113878;27;45446;-85
2021/12/14 07:20:13;;;;;;;;;10.75;8.75;;;;;;;;5099018;27;45478;-85
2021/12/14 07:22:41;;;;;;;;;12.50;12.00;;;;;;;;5116708;27;45389;-83
2021/12/14 07:25:20;;;;;;;;;13.00;13.00;;;;;;;;5116927;27;46440;-83
2021/12/14 07:27:45;;;;;;;;;14.25;12.75;;;;;;;;5116917;27;45706;-84
2021/12/14 07:30:22;;;;;;;;;16.33;15.67;;;;;;;;5098653;27;45341;-82
2021/12/14 07:32:50;;;;;;;;;20.00;14.25;;;;;;;;5116865;27;45382;-82
2021/12/14 07:35:35;;;;;;;;;14.50;13.00;;;;;;;;5097741;27;46263;-81
2021/12/14 07:38:10;;;;;;;;;12.25;11.75;;;;;;;;5115852;27;45348;-84
2021/12/14 07:40:44;;;;;;;;;19.25;15.00;;;;;;;;5098428;27;45405;-82
2021/12/14 07:43:14;;;;;;;;;17.75;16.25;;;;;;;;5098160;27;45641;-84
2021/12/14 07:45:39;;;;;;;;;15.50;14.00;;;;;;;;5116295;27;46554;-81
2021/12/14 07:48:05;;;;;;;;;15.50;13.75;;;;;;;;5116389;27;45298;-81
2021/12/14 07:50:48;;;;;;;;;18.50;14.00;;;;;;;;5116110;27;45281;-82
2021/12/14 07:53:13;;;;;;;;;15.50;14.50;;;;;;;;5097905;27;45416;-81
2021/12/14 07:55:41;;;;;;;;;15.75;14.00;;;;;;;;5116218;27;45506;-86
2021/12/14 07:58:06;;;;;;;;;13.50;12.00;;;;;;;;5116336;27;45756;-82
2021/12/14 08:00:35;;;;;;;;;11.50;11.50;;;;;;;;5097817;27;45305;-81
2021/12/14 08:03:03;;;;;;;;;15.50;13.25;;;;;;;;5097642;27;45662;-81
2021/12/14 08:05:31;;;;;;;;;14.75;13.00;;;;;;;;5097256;27;48114;-81
2021/12/14 08:07:59;;;;;;;;;15.50;14.50;;;;;;;;5115760;27;45475;-82
2021/12/14 08:10:29;;;;;;;;;17.50;14.75;;;;;;;;5097445;27;45476;-81
2021/12/14 08:12:57;;;;;;;;;16.00;14.00;;;;;;;;5097581;27;45353;-84
2021/12/14 08:15:37;;;;;;;;;12.75;11.50;;;;;;;;5116221;27;45481;-85
2021/12/14 08:18:07;;;;;;;;;15.00;13.75;;;;;;;;5097684;27;45493;-85
2021/12/14 08:20:35;;;;;;;;;19.50;17.25;;;;;;;;5097907;27;45429;-86
2021/12/14 08:23:11;;;;;;;;;18.75;16.25;;;;;;;;5115551;27;45448;-85
2021/12/14 08:25:39;;;;;;;;;15.00;14.50;;;;;;;;5097294;27;46192;-85
2021/12/14 08:28:06;;;;;;;;;19.50;17.75;;;;;;;;5115868;27;45448;-84
2021/12/14 08:30:33;;;;;;;;;16.00;14.50;;;;;;;;5116012;27;45535;-85
2021/12/14 08:32:59;;;;;;;;;15.50;13.75;;;;;;;;5097087;27;45548;-84
2021/12/14 08:35:24;;;;;;;;;15.00;13.25;;;;;;;;5115709;27;46233;-85
2021/12/14 08:37:53;;;;;;;;;15.50;14.00;;;;;;;;5115281;27;45319;-85
2021/12/14 08:40:21;;;;;;;;;17.75;15.00;;;;;;;;5097035;27;44729;-82
2021/12/14 08:43:02;;;;;;;;;17.00;14.50;;;;;;;;5097034;27;45537;-82
2021/12/14 08:45:28;;;;;;;;;15.00;13.00;;;;;;;;5115340;27;46204;-81
2021/12/14 08:48:02;;;;;;;;;19.75;15.25;;;;;;;;5115245;27;45921;-81
2021/12/14 08:50:29;;;;;;;;;19.50;18.50;;;;;;;;5096775;27;45364;-82
2021/12/14 08:52:55;;;;;;;;;16.75;15.75;;;;;;;;5114818;27;45440;-82
2021/12/14 08:55:21;;;;;;;;;18.50;17.75;;;;;;;;5115180;27;46314;-81
2021/12/14 08:57:47;;;;;;;;;17.00;16.25;;;;;;;;5115270;27;45834;-84
2021/12/14 09:00:15;;;;;;;;;21.50;17.25;;;;;;;;5115241;27;45427;-81
2021/12/14 09:02:41;;;;;;;;;22.00;18.75;;;;;;;;5096439;27;45279;-81
2021/12/14 09:05:12;;;;;;;;;17.75;14.75;;;;;;;;5115086;27;46493;-81
2021/12/14 09:07:38;;;;;;;;;17.75;14.75;;;;;;;;5114745;27;45395;-82
2021/12/14 09:10:07;;;;;;;;;16.50;13.50;;;;;;;;5115079;27;45393;-81
2021/12/14 09:12:35;;;;;;;;;18.00;15.00;;;;;;;;5115281;27;45388;-81
2021/12/14 09:15:13;;;;;;;;;18.00;15.50;;;;;;;;5096209;27;47370;-81
2021/12/14 09:17:38;;;;;;;;;18.75;17.50;;;;;;;;5114793;27;45242;-82
2021/12/14 09:20:06;;;;;;;;;21.00;20.00;;;;;;;;5115251;27;45243;-82
2021/12/14 09:22:32;;;;;;;;;17.25;15.50;;;;;;;;5096163;27;45445;-83
2021/12/14 09:24:59;;;;;;;;;29.25;25.25;;;;;;;;5114820;27;46257;-82
2021/12/14 09:27:25;;;;;;;;;19.50;19.00;;;;;;;;5114818;27;45309;-82
2021/12/14 09:29:51;;;;;;;;;13.00;13.00;;;;;;;;5114864;27;44806;-81
2021/12/14 09:32:21;;;;;;;;;19.50;18.25;;;;;;;;5114873;27;45352;-82
2021/12/14 09:34:46;;;;;;;;;21.00;17.25;;;;;;;;5096157;27;46255;-82
2021/12/14 09:37:13;;;;;;;;;19.33;15.33;;;;;;;;5114124;27;45562;-82
2021/12/14 09:39:40;;;;;;;;;25.50;19.25;;;;;;;;5114726;27;45313;-82
2021/12/14 09:42:08;;;;;;;;;16.00;15.25;;;;;;;;5113788;27;45470;-82
2021/12/14 09:44:35;;;;;;;;;18.50;16.75;;;;;;;;5095997;27;47279;-81
2021/12/14 09:47:04;;;;;;;;;21.00;18.75;;;;;;;;5095994;27;45832;-81
2021/12/14 09:49:30;;;;;;;;;15.00;14.25;;;;;;;;5096478;27;45500;-82
2021/12/14 09:51:59;;;;;;;;;24.00;23.33;;;;;;;;5114115;27;45345;-82
2021/12/14 09:54:25;;;;;;;;;20.00;17.25;;;;;;;;5095675;27;48486;-81
2021/12/14 09:56:54;;;;;;;;;20.50;18.50;;;;;;;;5095677;27;45726;-82
2021/12/14 09:59:20;;;;;;;;;20.00;18.25;;;;;;;;5114526;27;45328;-81
2021/12/14 10:01:50;;;;;;;;;13.50;11.50;;;;;;;;5095853;27;45388;-81
2021/12/14 10:04:18;;;;;;;;;13.00;11.75;;;;;;;;5095571;27;48054;-81
2021/12/14 10:06:43;;;;;;;;;16.50;16.50;;;;;;;;5095277;27;45960;-82
2021/12/14 10:09:11;;;;;;;;;24.50;22.75;;;;;;;;5114225;27;45491;-81
2021/12/14 10:11:46;;;;;;;;;19.50;16.00;;;;;;;;5095517;27;45614;-81
2021/12/14 10:14:12;;;;;;;;;25.00;20.00;;;;;;;;5095529;27;48086;-82
2021/12/14 10:16:37;;;;;;;;;19.50;16.00;;;;;;;;5114336;27;45281;-81
2021/12/14 10:19:09;;;;;;;;;24.67;20.33;;;;;;;;5095580;27;45467;-82
2021/12/14 10:21:40;;;;;;;;;20.00;19.75;;;;;;;;5113908;27;45472;-81
2021/12/14 10:24:07;;;;;;;;;22.50;17.75;;;;;;;;5113995;27;46397;-81
2021/12/14 10:26:33;;;;;;;;;23.00;19.50;;;;;;;;5095406;27;45879;-82
2021/12/14 10:29:00;;;;;;;;;22.75;18.50;;;;;;;;5114338;27;45355;-82
2021/12/14 10:31:29;;;;;;;;;21.50;20.25;;;;;;;;5114040;27;45545;-82
2021/12/14 10:33:55;;;;;;;;;20.50;17.75;;;;;;;;5095367;27;46991;-81
2021/12/14 10:36:37;;;;;;;;;28.25;26.00;;;;;;;;5094725;27;45753;-82
2021/12/14 10:44:15;;;;;;;;;22.00;20.75;;;;;;;;5113722;27;45833;-82
2021/12/14 10:46:45;;;;;;;;;25.75;21.75;;;;;;;;5095032;27;45967;-81
2021/12/14 10:49:11;;;;;;;;;21.50;21.00;;;;;;;;5114271;27;45452;-81
2021/12/14 10:51:37;;;;;;;;;19.50;16.50;;;;;;;;5095236;27;45614;-81
2021/12/14 10:54:04;;;;;;;;;26.00;21.50;;;;;;;;5098567;27;47055;-81
2021/12/14 10:56:35;;;;;;;;;22.50;18.25;;;;;;;;5098617;27;46008;-81
2021/12/14 10:59:02;;;;;;;;;22.25;20.25;;;;;;;;5098371;27;45722;-81
2021/12/14 11:01:34;;;;;;;;;23.00;20.25;;;;;;;;5098576;27;45619;-81
2021/12/14 11:04:01;;;;;;;;;22.25;19.00;;;;;;;;5116864;27;46098;-81
2021/12/14 11:06:29;;;;;;;;;27.25;23.50;;;;;;;;5098254;27;45494;-82
2021/12/14 11:09:39;;;;;;;;;22.50;22.00;;;;;;;;5098865;27;46148;-81
2021/12/14 11:11:49;;;;;;;;;25.00;21.50;;;;;;;;5116952;27;45651;-82
2021/12/14 11:14:17;;;;;;;;;23.50;19.25;;;;;;;;5098209;27;46182;-82
2021/12/14 11:19:43;;;;;;;;;24.75;21.75;;;;;;;;5116991;27;45498;-82
2021/12/14 11:22:10;;;;;;;;;26.00;23.25;;;;;;;;5098371;27;45622;-81
2021/12/14 11:24:37;;;;;;;;;24.75;21.75;;;;;;;;5098407;27;47984;-82
2021/12/14 11:27:21;;;;;;;;;28.25;24.75;;;;;;;;5098201;27;45372;-81
2021/12/14 11:29:49;;;;;;;;;29.00;25.25;;;;;;;;5117084;27;45326;-82
2021/12/14 11:32:16;;;;;;;;;29.50;25.50;;;;;;;;5097964;27;45519;-81
2021/12/14 11:34:44;;;;;;;;;27.25;22.25;;;;;;;;5097926;27;47531;-81
2021/12/14 11:37:14;;;;;;;;;30.00;28.25;;;;;;;;5116186;27;45439;-81
2021/12/14 11:39:45;;;;;;;;;31.25;25.25;;;;;;;;5097947;27;45326;-82
2021/12/14 11:42:13;;;;;;;;;28.00;27.00;;;;;;;;5098185;27;45507;-81
2021/12/14 11:44:45;;;;;;;;;30.25;26.75;;;;;;;;5116156;27;48033;-81
2021/12/14 11:49:55;;;;;;;;;30.50;26.75;;;;;;;;5116976;27;45381;-82
2021/12/14 11:52:35;;;;;;;;;30.75;28.50;;;;;;;;5093920;27;45621;-81
2021/12/14 11:55:01;;;;;;;;;27.00;22.75;;;;;;;;5094507;27;47003;-82
2021/12/14 11:57:30;;;;;;;;;36.00;29.00;;;;;;;;5095580;27;45392;-81
2021/12/14 12:00:18;;;;;;;;;31.50;26.50;;;;;;;;5095473;27;45475;-82
2021/12/14 12:02:43;;;;;;;;;39.75;31.50;;;;;;;;5095798;27;45427;-81
2021/12/14 12:05:12;;;;;;;;;35.67;33.33;;;;;;;;5094397;27;47430;-81
2021/12/14 12:10:22;;;;;;;;;35.25;30.25;;;;;;;;5095592;27;45285;-81
2021/12/14 12:12:47;;;;;;;;;38.00;35.00;;;;;;;;5094113;27;45606;-82
2021/12/14 12:15:19;;;;;;;;;38.00;34.33;;;;;;;;5094075;27;47013;-83
2021/12/14 12:17:52;;;;;;;;;39.75;34.25;;;;;;;;5093909;27;45934;-83
2021/12/14 12:20:27;;;;;;;;;33.75;30.25;;;;;;;;5094145;27;45384;-83
2021/12/14 12:22:55;;;;;;;;;33.00;30.00;;;;;;;;5094016;27;45435;-82
2021/12/14 12:25:23;;;;;;;;;30.00;29.50;;;;;;;;5095275;27;45442;-82
2021/12/14 12:27:51;;;;;;;;;41.25;35.00;;;;;;;;5095235;27;45911;-82
2021/12/14 12:30:36;;;;;;;;;49.75;38.75;;;;;;;;5095471;27;45417;-82
2021/12/14 12:33:09;;;;;;;;;42.00;35.25;;;;;;;;5095252;27;45354;-82
2021/12/14 12:35:52;;;;;;;;;33.50;30.75;;;;;;;;5093298;27;47116;-81
2021/12/14 12:38:38;;;;;;;;;40.50;31.75;;;;;;;;5093973;27;45869;-81
2021/12/14 12:41:12;;;;;;;;;35.25;31.00;;;;;;;;5094392;27;45314;-83
2021/12/14 12:43:41;;;;;;;;;41.00;33.75;;;;;;;;5093586;27;45572;-82
2021/12/14 12:46:21;;;;;;;;;34.50;30.75;;;;;;;;5094802;27;45521;-82
2021/12/14 12:49:05;;;;;;;;;34.25;30.50;;;;;;;;5093490;27;45436;-82
2021/12/14 12:51:39;;;;;;;;;35.75;31.25;;;;;;;;5093053;27;45496;-83
2021/12/14 12:54:13;;;;;;;;;33.75;30.50;;;;;;;;5093432;27;45236;-82
2021/12/14 12:56:42;;;;;;;;;34.50;29.25;;;;;;;;5094691;27;45428;-82
2021/12/14 12:59:08;;;;;;;;;33.25;30.75;;;;;;;;5093298;27;45804;-82
2021/12/14 13:01:34;;;;;;;;;32.50;29.50;;;;;;;;5094836;27;45444;-82
2021/12/14 13:03:59;;;;;;;;;41.00;34.00;;;;;;;;5094755;27;45405;-81
2021/12/14 13:06:24;;;;;;;;;34.67;32.33;;;;;;;;5093946;27;45329;-82
2021/12/14 13:08:52;;;;;;;;;34.00;31.00;;;;;;;;5093096;27;45420;-82
2021/12/14 13:11:20;;;;;;;;;47.00;40.00;;;;;;;;5093396;27;45356;-81
2021/12/14 13:13:45;;;;;;;;;51.50;39.25;;;;;;;;5094662;27;45332;-81
2021/12/14 13:16:13;;;;;;;;;37.67;33.33;;;;;;;;5093077;27;46464;-81
2021/12/14 13:18:54;;;;;;;;;31.50;29.75;;;;;;;;5093005;27;45975;-80
2021/12/14 13:21:25;;;;;;;;;35.75;30.75;;;;;;;;5092827;27;45348;-81
2021/12/14 13:24:06;;;;;;;;;40.25;36.75;;;;;;;;5092833;27;45365;-81
2021/12/14 13:26:34;;;;;;;;;27.75;25.25;;;;;;;;5094191;27;46481;-82
2021/12/14 13:29:05;;;;;;;;;39.50;35.00;;;;;;;;5094176;27;45369;-82
2021/12/14 13:31:38;;;;;;;;;31.00;29.50;;;;;;;;5094654;27;45395;-82
2021/12/14 13:34:05;;;;;;;;;38.75;34.50;;;;;;;;5092819;27;45581;-82
2021/12/14 13:36:31;;;;;;;;;36.00;33.00;;;;;;;;5092269;27;47102;-82
2021/12/14 13:38:56;;;;;;;;;34.25;32.25;;;;;;;;5093925;27;45505;-81
2021/12/14 13:41:40;;;;;;;;;39.00;33.00;;;;;;;;5094243;27;45342;-83
2021/12/14 13:44:06;;;;;;;;;34.50;32.00;;;;;;;;5094094;27;45519;-81
2021/12/14 13:46:31;;;;;;;;;45.50;34.75;;;;;;;;5092730;27;47630;-82
2021/12/14 13:48:56;;;;;;;;;31.50;30.00;;;;;;;;5093872;27;45447;-80
2021/12/14 13:51:23;;;;;;;;;33.67;30.67;;;;;;;;5089654;27;45608;-81
2021/12/14 13:53:48;;;;;;;;;38.50;32.25;;;;;;;;5092420;27;45353;-81
2021/12/14 13:56:20;;;;;;;;;35.50;32.75;;;;;;;;5093870;27;45833;-81
2021/12/14 13:58:46;;;;;;;;;45.50;36.50;;;;;;;;5093674;27;45297;-83
2021/12/14 14:01:17;;;;;;;;;41.00;36.00;;;;;;;;5092305;27;45352;-81
2021/12/14 14:03:46;;;;;;;;;45.25;38.25;;;;;;;;5092197;27;45369;-81
2021/12/14 14:06:13;;;;;;;;;46.75;39.25;;;;;;;;5093488;27;46584;-80
2021/12/14 14:08:41;;;;;;;;;46.25;37.25;;;;;;;;5093166;27;45763;-81
2021/12/14 14:11:09;;;;;;;;;39.00;35.00;;;;;;;;5092364;27;45500;-82
2021/12/14 14:13:36;;;;;;;;;41.25;38.00;;;;;;;;5092179;27;45491;-82
2021/12/14 14:16:02;;;;;;;;;46.50;39.00;;;;;;;;5091974;27;47342;-81
2021/12/14 14:18:33;;;;;;;;;49.00;38.50;;;;;;;;5092182;27;45822;-81
2021/12/14 14:21:00;;;;;;;;;51.00;40.75;;;;;;;;5091681;27;45485;-81
2021/12/14 14:23:33;;;;;;;;;42.50;38.25;;;;;;;;5092151;27;45478;-81
2021/12/14 14:26:00;;;;;;;;;40.75;35.75;;;;;;;;5093297;27;46591;-81
2021/12/14 14:28:35;;;;;;;;;45.50;37.00;;;;;;;;5094960;27;46404;-82
2021/12/14 14:31:00;;;;;;;;;43.25;36.50;;;;;;;;5095535;27;45467;-80
2021/12/14 14:33:29;;;;;;;;;46.75;38.50;;;;;;;;5097065;27;45440;-81
2021/12/14 14:36:09;;;;;;;;;43.75;38.25;;;;;;;;5096431;27;45471;-81
2021/12/14 14:38:40;;;;;;;;;45.25;36.75;;;;;;;;5097502;27;46200;-81
2021/12/14 14:41:08;;;;;;;;;46.00;38.00;;;;;;;;5095390;27;45392;-82
2021/12/14 14:43:52;;;;;;;;;43.75;36.00;;;;;;;;5096854;27;45307;-82
2021/12/14 14:46:37;;;;;;;;;45.75;37.25;;;;;;;;5096975;27;45693;-82
2021/12/14 14:49:02;;;;;;;;;50.75;38.25;;;;;;;;5096586;27;45496;-81
2021/12/14 14:51:43;;;;;;;;;54.50;41.00;;;;;;;;5095134;27;45571;-81
2021/12/14 14:54:41;;;;;;;;;50.25;41.00;;;;;;;;5095273;27;45510;-81
2021/12/14 14:57:06;;;;;;;;;50.00;40.25;;;;;;;;5088294;27;46773;-81
2021/12/14 14:59:31;;;;;;;;;25.67;19.33;;;;;;;;5096758;27;45578;-82
2021/12/14 15:01:56;;;;;;;;;51.00;40.00;;;;;;;;5095231;27;45445;-81
2021/12/14 15:04:21;;;;;;;;;50.67;39.00;;;;;;;;5096559;27;45418;-81
2021/12/14 15:06:48;;;;;;;;;49.67;39.00;;;;;;;;5095839;27;46740;-81
2021/12/14 15:09:42;;;;;;;;;46.25;40.00;;;;;;;;5096664;27;45792;-81
2021/12/14 15:12:16;;;;;;;;;56.00;43.50;;;;;;;;5092863;27;45534;-81
2021/12/14 15:14:42;;;;;;;;;50.75;40.50;;;;;;;;5096423;27;45610;-81
2021/12/14 15:17:16;;;;;;;;;44.25;37.00;;;;;;;;5096040;27;45420;-81